createdAt,value
2023-04-04T00:00:27.756Z,-3.34
2023-04-04T00:02:54.373Z,-3.31
2023-04-04T00:05:21.440Z,-3.32
2023-04-04T00:07:48.525Z,-3.33
2023-04-04T00:10:16.388Z,-3.29
2023-04-04T00:12:44.053Z,-3.34
2023-04-04T00:15:11.163Z,-3.38
2023-04-04T00:17:38.018Z,-3.41
2023-04-04T00:20:05.167Z,-3.45
2023-04-04T00:22:32.264Z,-3.46
2023-04-04T00:24:59.145Z,-3.30
2023-04-04T00:27:26.135Z,-3.35
2023-04-04T00:29:52.942Z,-3.39
2023-04-04T00:32:19.763Z,-3.45
2023-04-04T00:34:46.539Z,-3.41
2023-04-04T00:37:13.206Z,-3.41
2023-04-04T00:39:41.053Z,-3.43
2023-04-04T00:42:08.287Z,-3.42
2023-04-04T00:44:36.387Z,-3.41
2023-04-04T00:47:04.615Z,-3.47
2023-04-04T00:49:31.478Z,-3.52
2023-04-04T00:51:59.270Z,-3.54
2023-04-04T00:54:26.264Z,-3.54
2023-04-04T00:56:55.577Z,-3.64
2023-04-04T00:59:26.027Z,-3.71
2023-04-04T01:01:53.451Z,-3.70
2023-04-04T01:04:20.041Z,-3.70
2023-04-04T01:06:47.009Z,-3.70
2023-04-04T01:09:13.655Z,-3.72
2023-04-04T01:11:40.874Z,-3.68
2023-04-04T01:14:08.143Z,-3.72
2023-04-04T01:16:36.377Z,-3.78
2023-04-04T01:19:08.853Z,-3.85
2023-04-04T01:21:37.362Z,-3.91
2023-04-04T01:24:04.914Z,-3.90
2023-04-04T01:26:39.413Z,-3.92
2023-04-04T01:29:06.374Z,-3.91
2023-04-04T01:31:40.720Z,-3.91
2023-04-04T01:34:23.012Z,-3.93
2023-04-04T01:36:54.173Z,-4.01
2023-04-04T01:39:41.989Z,-3.99
2023-04-04T01:42:10.115Z,-4.01
2023-04-04T01:44:37.571Z,-4.03
2023-04-04T01:47:10.813Z,-4.08
2023-04-04T01:49:37.701Z,-4.12
2023-04-04T01:52:07.303Z,-4.13
2023-04-04T01:54:36.119Z,-4.14
2023-04-04T01:57:02.726Z,-4.15
2023-04-04T01:59:29.610Z,-4.15
2023-04-04T02:01:57.717Z,-4.18
2023-04-04T02:04:25.030Z,-4.18
2023-04-04T02:06:52.661Z,-4.18
2023-04-04T02:09:19.428Z,-4.18
2023-04-04T02:11:46.683Z,-4.17
2023-04-04T02:14:13.509Z,-4.19
2023-04-04T02:16:40.486Z,-4.22
2023-04-04T02:19:07.323Z,-4.27
2023-04-04T02:21:36.900Z,-4.29
2023-04-04T02:24:03.916Z,-4.35
2023-04-04T02:26:30.676Z,-4.37
2023-04-04T02:28:58.449Z,-4.38
2023-04-04T02:31:25.064Z,-4.43
2023-04-04T02:33:51.774Z,-4.39
2023-04-04T02:36:20.128Z,-4.35
2023-04-04T02:38:49.161Z,-4.32
2023-04-04T02:41:16.299Z,-4.33
2023-04-04T02:43:42.879Z,-4.32
2023-04-04T02:46:20.644Z,-4.24
2023-04-04T02:48:49.562Z,-4.28
2023-04-04T02:51:16.752Z,-4.33
2023-04-04T02:53:43.343Z,-4.33
2023-04-04T02:56:30.641Z,-4.37
2023-04-04T02:58:57.388Z,-4.39
2023-04-04T03:01:24.119Z,-4.43
2023-04-04T03:03:51.237Z,-4.44
2023-04-04T03:06:18.421Z,-4.51
2023-04-04T03:08:48.886Z,-4.57
2023-04-04T03:11:21.158Z,-4.57
2023-04-04T03:13:51.252Z,-4.58
2023-04-04T03:16:20.286Z,-4.60
2023-04-04T03:18:50.621Z,-4.63
2023-04-04T03:21:20.006Z,-4.64
2023-04-04T03:23:46.582Z,-4.64
2023-04-04T03:26:13.871Z,-4.69
2023-04-04T03:28:40.435Z,-4.71
2023-04-04T03:31:08.234Z,-4.78
2023-04-04T03:33:38.880Z,-4.79
2023-04-04T03:36:13.094Z,-4.79
2023-04-04T03:38:40.376Z,-4.82
2023-04-04T03:41:07.786Z,-4.86
2023-04-04T03:43:34.818Z,-4.87
2023-04-04T03:46:05.435Z,-4.88
2023-04-04T03:48:33.638Z,-4.92
2023-04-04T03:51:03.658Z,-4.92
2023-04-04T03:53:30.434Z,-4.94
2023-04-04T03:55:57.477Z,-4.99
2023-04-04T03:58:24.544Z,-5.07
2023-04-04T04:00:51.391Z,-5.13
2023-04-04T04:03:18.078Z,-5.20
2023-04-04T04:05:45.999Z,-5.19
2023-04-04T04:08:12.697Z,-5.17
2023-04-04T04:10:39.796Z,-5.18
2023-04-04T04:13:06.882Z,-5.20
2023-04-04T04:15:33.949Z,-5.21
2023-04-04T04:18:03.582Z,-5.23
2023-04-04T04:20:30.904Z,-5.23
2023-04-04T04:22:57.522Z,-5.27
2023-04-04T04:25:24.735Z,-5.26
2023-04-04T04:28:01.400Z,-5.26
2023-04-04T04:30:28.139Z,-5.21
2023-04-04T04:32:54.714Z,-5.23
2023-04-04T04:35:27.024Z,-5.22
2023-04-04T04:37:55.828Z,-5.20
2023-04-04T04:40:22.718Z,-5.24
2023-04-04T04:43:00.950Z,-5.29
2023-04-04T04:45:27.857Z,-5.29
2023-04-04T04:48:04.934Z,-5.32
2023-04-04T04:50:34.293Z,-5.32
2023-04-04T04:53:00.880Z,-5.28
2023-04-04T04:55:27.660Z,-5.27
2023-04-04T04:58:06.342Z,-5.31
2023-04-04T05:00:33.346Z,-5.31
2023-04-04T05:03:02.939Z,-5.29
2023-04-04T05:05:40.395Z,-5.30
2023-04-04T05:08:11.464Z,-5.31
2023-04-04T05:10:45.801Z,-5.30
2023-04-04T05:13:14.133Z,-5.27
2023-04-04T05:15:46.987Z,-5.28
2023-04-04T05:18:14.300Z,-5.26
2023-04-04T05:20:42.375Z,-5.23
2023-04-04T05:23:12.298Z,-5.09
2023-04-04T05:25:41.705Z,-5.07
2023-04-04T05:28:09.143Z,-5.04
2023-04-04T05:30:39.305Z,-4.99
2023-04-04T05:33:13.669Z,-4.88
2023-04-04T05:35:45.823Z,-4.76
2023-04-04T05:38:14.104Z,-4.57
2023-04-04T05:40:42.455Z,-4.40
2023-04-04T05:43:13.280Z,-4.28
2023-04-04T05:46:06.406Z,-4.11
2023-04-04T05:48:45.431Z,-3.89
2023-04-04T05:51:13.152Z,-3.74
2023-04-04T05:53:47.702Z,-3.63
2023-04-04T05:56:19.046Z,-3.42
2023-04-04T05:58:46.952Z,-3.29
2023-04-04T06:01:15.888Z,-3.10
2023-04-04T06:03:43.755Z,-2.94
2023-04-04T06:06:13.955Z,-2.70
2023-04-04T06:08:53.054Z,-2.48
2023-04-04T06:11:22.576Z,-2.29
2023-04-04T06:13:50.154Z,-2.17
2023-04-04T06:16:19.388Z,-1.99
2023-04-04T06:18:45.966Z,-1.85
2023-04-04T06:21:13.549Z,-1.71
2023-04-04T06:23:40.985Z,-1.50
2023-04-04T06:26:08.476Z,-1.23
2023-04-04T06:28:36.597Z,-1.20
2023-04-04T06:31:06.550Z,-1.12
2023-04-04T06:33:33.257Z,-0.91
2023-04-04T06:36:00.841Z,-0.76
2023-04-04T06:38:29.349Z,-0.65
2023-04-04T06:40:58.618Z,-0.36
2023-04-04T06:43:25.637Z,-0.27
2023-04-04T06:45:52.309Z,-0.11
2023-04-04T06:48:20.927Z,-0.10
2023-04-04T06:50:47.674Z,-0.03
2023-04-04T06:53:16.495Z,0.10
2023-04-04T06:55:43.980Z,0.25
2023-04-04T06:58:10.658Z,0.39
2023-04-04T07:00:37.657Z,0.48
2023-04-04T07:03:04.692Z,0.63
2023-04-04T07:05:32.282Z,0.60
2023-04-04T07:07:59.091Z,0.55
2023-04-04T07:10:26.173Z,0.73
2023-04-04T07:12:53.205Z,0.88
2023-04-04T07:15:19.824Z,1.08
2023-04-04T07:17:46.514Z,1.17
2023-04-04T07:20:13.640Z,1.12
2023-04-04T07:22:42.300Z,1.35
2023-04-04T07:25:09.704Z,1.13
2023-04-04T07:27:36.662Z,1.20
2023-04-04T07:30:04.640Z,1.48
2023-04-04T07:32:31.535Z,1.83
2023-04-04T07:34:58.577Z,1.77
2023-04-04T07:37:26.890Z,1.92
2023-04-04T07:39:53.486Z,2.05
2023-04-04T07:42:23.273Z,1.80
2023-04-04T07:44:50.630Z,1.68
2023-04-04T07:47:21.377Z,1.79
2023-04-04T07:49:48.128Z,1.52
2023-04-04T07:52:14.708Z,1.26
2023-04-04T07:54:41.409Z,1.13
2023-04-04T07:57:10.015Z,0.98
2023-04-04T07:59:37.620Z,1.40
2023-04-04T08:02:04.327Z,1.54
2023-04-04T08:04:36.689Z,1.37
2023-04-04T08:07:20.460Z,1.35
2023-04-04T08:09:47.127Z,1.98
2023-04-04T08:12:13.673Z,2.18
2023-04-04T08:14:40.261Z,2.08
2023-04-04T08:17:07.041Z,2.11
2023-04-04T08:19:33.752Z,2.12
2023-04-04T08:22:00.273Z,1.90
2023-04-04T08:24:28.221Z,1.80
2023-04-04T08:27:04.607Z,2.05
2023-04-04T08:29:33.091Z,2.20
2023-04-04T08:32:00.669Z,1.93
2023-04-04T08:34:27.351Z,2.27
2023-04-04T08:36:54.150Z,2.54
2023-04-04T08:39:21.036Z,3.08
2023-04-04T08:41:47.736Z,3.28
2023-04-04T08:44:22.968Z,3.27
2023-04-04T08:46:50.360Z,3.63
2023-04-04T08:49:21.170Z,3.04
2023-04-04T08:51:52.368Z,2.74
2023-04-04T08:54:21.153Z,2.09
2023-04-04T08:56:48.307Z,1.84
2023-04-04T08:59:19.098Z,1.90
2023-04-04T09:01:46.079Z,2.42
2023-04-04T09:04:12.791Z,2.61
2023-04-04T09:06:40.305Z,3.05
2023-04-04T09:09:07.767Z,2.98
2023-04-04T09:11:36.048Z,2.60
2023-04-04T09:14:04.694Z,2.21
2023-04-04T09:16:31.632Z,2.38
2023-04-04T09:18:58.182Z,2.59
2023-04-04T09:21:25.118Z,3.18
2023-04-04T09:24:01.918Z,3.67
2023-04-04T09:26:28.798Z,3.88
2023-04-04T09:28:55.631Z,4.30
2023-04-04T09:31:24.667Z,4.97
2023-04-04T09:33:51.416Z,4.92
2023-04-04T09:36:18.751Z,3.51
2023-04-04T09:38:46.219Z,2.95
2023-04-04T09:41:17.934Z,3.15
2023-04-04T09:43:46.306Z,3.27
2023-04-04T09:46:13.112Z,3.55
2023-04-04T09:48:40.323Z,4.23
2023-04-04T09:51:07.854Z,5.31
2023-04-04T09:53:37.331Z,4.62
2023-04-04T09:56:06.193Z,3.77
2023-04-04T09:58:36.091Z,3.37
2023-04-04T10:01:08.625Z,4.05
2023-04-04T10:03:37.101Z,4.12
2023-04-04T10:06:07.284Z,4.16
2023-04-04T10:08:37.359Z,4.60
2023-04-04T10:13:37.068Z,5.17
2023-04-04T10:16:04.810Z,5.16
2023-04-04T10:18:33.685Z,4.60
2023-04-04T10:21:14.558Z,5.32
2023-04-04T10:23:43.014Z,5.66
2023-04-04T10:26:09.981Z,6.14
2023-04-04T10:28:36.951Z,6.36
2023-04-04T10:31:16.256Z,6.98
2023-04-04T10:34:01.948Z,7.15
2023-04-04T10:36:44.384Z,7.08
2023-04-04T10:39:24.906Z,7.02
2023-04-04T10:41:52.712Z,7.78
2023-04-04T10:44:39.580Z,8.64
2023-04-04T10:47:23.818Z,8.68
2023-04-04T10:49:51.972Z,9.28
2023-04-04T10:52:20.883Z,9.29
2023-04-04T10:54:54.265Z,7.19
2023-04-04T10:57:21.369Z,7.07
2023-04-04T11:00:13.008Z,7.87
2023-04-04T11:03:06.260Z,9.14
2023-04-04T11:05:41.280Z,9.47
2023-04-04T11:08:10.855Z,10.07
2023-04-04T11:10:45.570Z,9.57
2023-04-04T11:13:22.523Z,9.88
2023-04-04T11:16:00.352Z,10.05
2023-04-04T11:18:47.983Z,11.19
2023-04-04T11:21:20.395Z,10.59
2023-04-04T11:23:50.388Z,11.09
2023-04-04T11:26:18.859Z,10.68
2023-04-04T11:28:46.341Z,10.47
2023-04-04T11:31:16.656Z,10.05
2023-04-04T11:34:05.028Z,8.58
2023-04-04T11:36:37.688Z,8.14
2023-04-04T11:39:13.384Z,9.89
2023-04-04T11:41:57.096Z,10.86
2023-04-04T11:44:25.939Z,10.09
2023-04-04T11:47:11.887Z,10.73
2023-04-04T11:49:41.733Z,9.65
2023-04-04T11:52:10.773Z,9.56
2023-04-04T11:54:38.936Z,10.26
2023-04-04T11:57:12.094Z,10.64
2023-04-04T11:59:45.594Z,12.59
2023-04-04T12:02:14.162Z,13.97
2023-04-04T12:04:43.762Z,13.29
2023-04-04T12:07:11.552Z,12.23
2023-04-04T12:09:38.995Z,10.90
2023-04-04T12:12:07.555Z,9.66
2023-04-04T12:14:34.327Z,10.86
2023-04-04T12:17:02.893Z,10.33
2023-04-04T12:19:29.882Z,11.20
2023-04-04T12:21:58.033Z,12.56
2023-04-04T12:24:24.792Z,11.03
2023-04-04T12:26:52.972Z,10.56
2023-04-04T12:29:22.778Z,11.99
2023-04-04T12:31:51.711Z,12.49
2023-04-04T12:34:19.306Z,11.78
2023-04-04T12:36:51.573Z,12.54
2023-04-04T12:39:20.764Z,11.92
2023-04-04T12:41:57.247Z,12.53
2023-04-04T12:44:30.655Z,12.66
2023-04-04T12:47:00.170Z,12.35
2023-04-04T12:49:32.966Z,11.51
2023-04-04T12:52:04.349Z,10.44
2023-04-04T12:54:33.929Z,12.56
2023-04-04T12:57:04.278Z,13.37
2023-04-04T12:59:33.434Z,14.33
2023-04-04T13:02:09.077Z,14.05
2023-04-04T13:04:36.183Z,13.33
2023-04-04T13:07:03.396Z,13.32
2023-04-04T13:09:30.199Z,13.68
2023-04-04T13:12:01.997Z,13.09
2023-04-04T13:14:49.382Z,14.02
2023-04-04T13:17:16.064Z,13.33
2023-04-04T13:19:42.601Z,14.26
2023-04-04T13:22:09.517Z,14.98
2023-04-04T13:24:36.244Z,13.42
2023-04-04T13:27:02.969Z,12.10
2023-04-04T13:29:29.743Z,12.59
2023-04-04T13:31:56.918Z,12.75
2023-04-04T13:34:24.370Z,13.63
2023-04-04T13:36:51.350Z,14.50
2023-04-04T13:39:19.812Z,15.17
2023-04-04T13:41:46.441Z,14.62
2023-04-04T13:44:16.602Z,13.62
2023-04-04T13:46:43.720Z,14.79
2023-04-04T13:49:11.041Z,15.51
2023-04-04T13:51:38.129Z,14.74
2023-04-04T13:54:04.828Z,14.85
2023-04-04T13:56:31.596Z,14.25
2023-04-04T13:58:58.205Z,13.17
2023-04-04T14:01:25.441Z,13.08
2023-04-04T14:03:52.232Z,14.39
2023-04-04T14:06:19.009Z,14.78
2023-04-04T14:08:47.128Z,15.38
2023-04-04T14:11:14.963Z,15.80
2023-04-04T14:13:41.979Z,15.84
2023-04-04T14:16:09.407Z,16.76
2023-04-04T14:18:36.113Z,17.29
2023-04-04T14:21:04.116Z,16.76
2023-04-04T14:23:30.928Z,16.96
2023-04-04T14:25:58.167Z,16.49
2023-04-04T14:28:25.354Z,17.57
2023-04-04T14:30:51.848Z,17.39
2023-04-04T14:33:18.398Z,16.41
2023-04-04T14:35:45.299Z,14.82
2023-04-04T14:38:11.963Z,15.33
2023-04-04T14:40:38.611Z,15.85
2023-04-04T14:43:05.155Z,16.18
2023-04-04T14:45:33.225Z,15.33
2023-04-04T14:47:59.965Z,15.91
2023-04-04T14:50:26.758Z,16.93
2023-04-04T14:52:56.444Z,17.08
2023-04-04T14:55:23.581Z,16.16
2023-04-04T14:58:02.112Z,14.97
2023-04-04T15:00:30.330Z,12.91
2023-04-04T15:02:56.992Z,11.60
2023-04-04T15:05:25.415Z,11.75
2023-04-04T15:07:51.912Z,11.88
2023-04-04T15:10:18.836Z,13.14
2023-04-04T15:12:45.421Z,13.57
2023-04-04T15:15:13.377Z,13.56
2023-04-04T15:17:40.983Z,12.26
2023-04-04T15:20:08.547Z,10.84
2023-04-04T15:22:35.367Z,10.11
2023-04-04T15:25:01.887Z,9.43
2023-04-04T15:27:28.567Z,8.52
2023-04-04T15:29:55.248Z,9.05
2023-04-04T15:32:21.836Z,9.80
2023-04-04T15:34:48.674Z,9.26
2023-04-04T15:37:16.091Z,9.84
2023-04-04T15:39:52.181Z,9.55
2023-04-04T15:42:20.680Z,9.53
2023-04-04T15:44:47.381Z,9.30
2023-04-04T15:47:16.558Z,9.15
2023-04-04T15:49:43.207Z,8.54
2023-04-04T15:52:10.083Z,8.88
2023-04-04T15:54:36.786Z,9.61
2023-04-04T15:57:04.005Z,9.95
2023-04-04T15:59:33.647Z,9.22
2023-04-04T16:02:00.446Z,8.57
2023-04-04T16:04:27.297Z,7.88
2023-04-04T16:06:53.805Z,7.48
2023-04-04T16:09:21.340Z,6.83
2023-04-04T16:11:48.137Z,6.33
2023-04-04T16:14:14.794Z,5.88
2023-04-04T16:16:41.620Z,5.51
2023-04-04T16:19:08.612Z,5.44
2023-04-04T16:21:35.361Z,5.20
2023-04-04T16:24:03.669Z,5.15
2023-04-04T16:26:30.598Z,5.08
2023-04-04T16:28:57.343Z,4.93
2023-04-04T16:31:24.689Z,4.74
2023-04-04T16:33:51.575Z,4.78
2023-04-04T16:36:18.225Z,4.62
2023-04-04T16:38:44.988Z,4.33
2023-04-04T16:41:11.717Z,4.33
2023-04-04T16:43:38.327Z,4.06
2023-04-04T16:46:05.457Z,3.99
2023-04-04T16:48:32.104Z,3.83
2023-04-04T16:50:58.764Z,3.72
2023-04-04T16:53:25.464Z,3.42
2023-04-04T16:55:52.039Z,3.54
2023-04-04T16:58:19.448Z,3.53
2023-04-04T17:00:46.475Z,3.53
2023-04-04T17:03:13.091Z,3.52
2023-04-04T17:05:39.868Z,3.39
2023-04-04T17:08:07.377Z,3.37
2023-04-04T17:10:34.287Z,3.19
2023-04-04T17:13:01.001Z,2.79
2023-04-04T17:15:28.461Z,2.85
2023-04-04T17:17:55.153Z,2.77
2023-04-04T17:20:21.985Z,2.67
2023-04-04T17:22:49.761Z,2.52
2023-04-04T17:25:16.367Z,2.47
2023-04-04T17:27:43.093Z,2.41
2023-04-04T17:30:10.922Z,2.27
2023-04-04T17:32:37.738Z,2.09
2023-04-04T17:35:05.275Z,1.94
2023-04-04T17:37:32.292Z,1.80
2023-04-04T17:40:05.516Z,1.65
2023-04-04T17:42:32.440Z,1.57
2023-04-04T17:44:59.307Z,1.48
2023-04-04T17:47:26.149Z,1.28
2023-04-04T17:49:53.847Z,1.03
2023-04-04T17:52:20.413Z,0.84
2023-04-04T17:54:52.309Z,0.93
2023-04-04T17:57:19.709Z,0.73
2023-04-04T17:59:47.281Z,0.54
2023-04-04T18:02:16.184Z,0.49
2023-04-04T18:04:42.920Z,0.38
2023-04-04T18:07:09.840Z,0.33
2023-04-04T18:09:37.016Z,0.34
2023-04-04T18:12:03.699Z,0.19
2023-04-04T18:14:30.700Z,0.12
2023-04-04T18:16:57.241Z,0.00
2023-04-04T18:19:25.410Z,-0.06
2023-04-04T18:21:53.173Z,-0.10
2023-04-04T18:24:19.929Z,-0.13
2023-04-04T18:26:46.516Z,-0.13
2023-04-04T18:29:14.958Z,-0.18
2023-04-04T18:31:41.742Z,-0.17
2023-04-04T18:34:08.391Z,-0.14
2023-04-04T18:36:36.461Z,-0.21
2023-04-04T18:39:03.535Z,-0.38
2023-04-04T18:41:30.392Z,-0.44
2023-04-04T18:43:57.174Z,-0.47
2023-04-04T18:46:24.345Z,-0.44
2023-04-04T18:48:51.068Z,-0.52
2023-04-04T18:51:17.752Z,-0.53
2023-04-04T18:53:44.476Z,-0.61
2023-04-04T18:56:11.120Z,-0.66
2023-04-04T18:58:37.648Z,-0.71
2023-04-04T19:01:04.293Z,-0.77
2023-04-04T19:03:38.437Z,-0.75
2023-04-04T19:06:06.429Z,-0.88
2023-04-04T19:08:33.956Z,-0.94
2023-04-04T19:11:00.504Z,-1.01
2023-04-04T19:13:27.161Z,-1.06
2023-04-04T19:15:56.315Z,-1.05
2023-04-04T19:18:23.600Z,-1.08
2023-04-04T19:20:50.173Z,-1.13
2023-04-04T19:23:17.364Z,-1.21
2023-04-04T19:25:44.366Z,-1.27
2023-04-04T19:28:11.144Z,-1.27
2023-04-04T19:30:45.072Z,-1.35
2023-04-04T19:33:13.851Z,-1.33
2023-04-04T19:35:55.748Z,-1.37
2023-04-04T19:38:25.482Z,-1.41
2023-04-04T19:41:01.879Z,-1.42
2023-04-04T19:43:29.732Z,-1.40
2023-04-04T19:46:11.020Z,-1.50
2023-04-04T19:48:43.800Z,-1.55
2023-04-04T19:51:22.463Z,-1.60
2023-04-04T19:53:49.012Z,-1.62
2023-04-04T19:56:17.071Z,-1.68
2023-04-04T19:58:44.460Z,-1.71
2023-04-04T20:01:21.530Z,-1.70
2023-04-04T20:03:48.494Z,-1.74
2023-04-04T20:06:28.481Z,-1.83
2023-04-04T20:08:57.580Z,-1.79
2023-04-04T20:11:33.991Z,-1.84
2023-04-04T20:14:03.128Z,-1.87
2023-04-04T20:16:30.287Z,-1.92
2023-04-04T20:18:59.627Z,-1.96
2023-04-04T20:21:28.515Z,-1.98
2023-04-04T20:23:58.647Z,-1.99
2023-04-04T20:26:51.552Z,-2.02
2023-04-04T20:29:21.914Z,-2.02
2023-04-04T20:31:55.836Z,-2.02
2023-04-04T20:34:41.156Z,-2.05
2023-04-04T20:37:28.764Z,-2.13
2023-04-04T20:40:00.314Z,-2.20
2023-04-04T20:42:31.859Z,-2.24
2023-04-04T20:45:11.121Z,-2.29
2023-04-04T20:47:51.714Z,-2.35
2023-04-04T20:50:18.636Z,-2.37
2023-04-04T20:52:49.978Z,-2.37
2023-04-04T20:55:22.567Z,-2.38
2023-04-04T20:57:50.790Z,-2.37
2023-04-04T21:00:30.122Z,-2.41
2023-04-04T21:03:01.888Z,-2.50
2023-04-04T21:05:29.771Z,-2.48
2023-04-04T21:07:57.212Z,-2.46
2023-04-04T21:10:25.465Z,-2.48
2023-04-04T21:12:52.490Z,-2.51
2023-04-04T21:15:28.562Z,-2.53
2023-04-04T21:17:59.340Z,-2.57
2023-04-04T21:20:47.809Z,-2.63
2023-04-04T21:23:26.874Z,-2.63
2023-04-04T21:26:04.495Z,-2.64
2023-04-04T21:28:42.154Z,-2.64
2023-04-04T21:31:22.850Z,-2.66
2023-04-04T21:33:53.579Z,-2.70
2023-04-04T21:36:23.153Z,-2.73
2023-04-04T21:38:51.376Z,-2.76
2023-04-04T21:41:23.933Z,-2.82
2023-04-04T21:43:51.967Z,-2.90
2023-04-04T21:46:18.687Z,-2.92
2023-04-04T21:48:45.609Z,-2.91
2023-04-04T21:51:12.151Z,-2.90
2023-04-04T21:53:38.692Z,-2.88
2023-04-04T21:56:05.646Z,-2.95
2023-04-04T21:58:32.215Z,-3.01
2023-04-04T22:00:58.968Z,-3.02
2023-04-04T22:03:25.509Z,-3.03
2023-04-04T22:05:52.110Z,-3.09
2023-04-04T22:08:19.263Z,-3.17
2023-04-04T22:10:46.293Z,-3.21
2023-04-04T22:13:18.734Z,-3.17
2023-04-04T22:15:49.661Z,-3.16
2023-04-04T22:18:17.015Z,-3.19
2023-04-04T22:20:45.464Z,-3.21
2023-04-04T22:23:15.594Z,-3.20
2023-04-04T22:25:42.375Z,-3.20
2023-04-04T22:28:09.532Z,-3.22
2023-04-04T22:30:39.144Z,-3.23
2023-04-04T22:33:06.162Z,-3.25
2023-04-04T22:35:33.278Z,-3.25
2023-04-04T22:38:03.639Z,-3.21
2023-04-04T22:40:31.810Z,-3.25
2023-04-04T22:42:59.407Z,-3.29
2023-04-04T22:45:27.295Z,-3.27
2023-04-04T22:47:54.952Z,-3.30
2023-04-04T22:50:26.666Z,-3.35
2023-04-04T22:52:55.056Z,-3.38
2023-04-04T22:55:24.053Z,-3.42
2023-04-04T22:57:51.107Z,-3.42
2023-04-04T23:00:17.968Z,-3.44
2023-04-04T23:02:46.817Z,-3.44
2023-04-04T23:05:16.077Z,-3.47
2023-04-04T23:07:44.130Z,-3.51
2023-04-04T23:10:13.075Z,-3.52
2023-04-04T23:12:40.561Z,-3.51
2023-04-04T23:15:08.310Z,-3.56
2023-04-04T23:17:36.045Z,-3.62
2023-04-04T23:20:09.935Z,-3.67
2023-04-04T23:22:38.017Z,-3.72
2023-04-04T23:25:06.874Z,-3.81
2023-04-04T23:27:34.362Z,-3.82
2023-04-04T23:30:04.766Z,-3.88
2023-04-04T23:32:33.405Z,-3.90
2023-04-04T23:35:00.026Z,-3.93
2023-04-04T23:37:26.709Z,-3.93
2023-04-04T23:39:53.365Z,-3.95
2023-04-04T23:42:19.994Z,-3.93
2023-04-04T23:44:46.728Z,-3.87
2023-04-04T23:47:13.770Z,-3.94
2023-04-04T23:49:40.647Z,-3.93
2023-04-04T23:52:07.260Z,-3.95
2023-04-04T23:54:34.291Z,-3.93
2023-04-04T23:57:01.239Z,-3.91
2023-04-04T23:59:28.180Z,-3.93
